createdAt,value
2023-04-27T00:00:25.136Z,98134.06
2023-04-27T00:02:55.760Z,98123.13
2023-04-27T00:05:28.394Z,98130.41
2023-04-27T00:07:58.322Z,98127.91
2023-04-27T00:10:28.253Z,98127.88
2023-04-27T00:12:58.111Z,98123.13
2023-04-27T00:15:28.063Z,98124.75
2023-04-27T00:17:58.148Z,98125.72
2023-04-27T00:20:30.696Z,98127.59
2023-04-27T00:23:00.604Z,98124.59
2023-04-27T00:25:30.662Z,98115.41
2023-04-27T00:28:00.648Z,98113.09
2023-04-27T00:30:30.689Z,98110.09
2023-04-27T00:33:01.073Z,98108.38
2023-04-27T00:35:35.334Z,98104.53
2023-04-27T00:38:06.154Z,98107.22
2023-04-27T00:40:37.222Z,98108.31
2023-04-27T00:43:10.821Z,98106.88
2023-04-27T00:45:45.596Z,98108.66
2023-04-27T00:48:16.220Z,98103.88
2023-04-27T00:50:48.948Z,98103.59
2023-04-27T00:53:19.071Z,98104.22
2023-04-27T00:55:50.077Z,98097.25
2023-04-27T00:58:19.983Z,98099.00
2023-04-27T01:00:49.936Z,98098.81
2023-04-27T01:03:20.417Z,98104.34
2023-04-27T01:05:53.358Z,98097.56
2023-04-27T01:08:23.270Z,98102.00
2023-04-27T01:10:53.232Z,98099.78
2023-04-27T01:13:23.320Z,98101.50
2023-04-27T01:15:53.260Z,98104.72
2023-04-27T01:18:23.866Z,98105.66
2023-04-27T01:20:56.380Z,98098.56
2023-04-27T01:23:29.132Z,98099.19
2023-04-27T01:25:59.142Z,98106.97
2023-04-27T01:28:29.074Z,98103.63
2023-04-27T01:30:59.430Z,98105.06
2023-04-27T01:33:29.476Z,98109.03
2023-04-27T01:35:59.657Z,98103.97
2023-04-27T01:38:35.482Z,98108.03
2023-04-27T01:41:09.192Z,98108.38
2023-04-27T01:43:39.870Z,98103.94
2023-04-27T01:46:10.599Z,98102.66
2023-04-27T01:48:41.430Z,98094.41
2023-04-27T01:51:11.542Z,98106.00
2023-04-27T01:53:44.517Z,98102.38
2023-04-27T01:56:14.639Z,98107.78
2023-04-27T01:58:44.548Z,98104.16
2023-04-27T02:01:14.494Z,98111.16
2023-04-27T02:03:44.631Z,98110.66
2023-04-27T02:06:15.848Z,98113.50
2023-04-27T02:08:48.803Z,98109.53
2023-04-27T02:11:19.342Z,98111.94
2023-04-27T02:13:49.281Z,98109.22
2023-04-27T02:16:19.183Z,98107.97
2023-04-27T02:18:49.211Z,98116.31
2023-04-27T02:21:19.675Z,98120.75
2023-04-27T02:23:52.265Z,98124.56
2023-04-27T02:26:23.873Z,98127.09
2023-04-27T02:28:54.056Z,98129.97
2023-04-27T02:31:24.493Z,98123.28
2023-04-27T02:33:54.471Z,98130.56
2023-04-27T02:36:24.511Z,98130.88
2023-04-27T02:38:56.967Z,98132.97
2023-04-27T02:41:28.229Z,98134.38
2023-04-27T02:43:58.076Z,98130.41
2023-04-27T02:46:28.036Z,98143.41
2023-04-27T02:48:58.599Z,98131.69
2023-04-27T02:51:28.574Z,98141.47
2023-04-27T02:54:01.561Z,98137.56
2023-04-27T02:56:31.770Z,98139.44
2023-04-27T02:59:02.055Z,98141.47
2023-04-27T03:01:32.336Z,98140.88
2023-04-27T03:04:02.431Z,98142.91
2023-04-27T03:06:32.500Z,98147.03
2023-04-27T03:09:05.608Z,98151.13
2023-04-27T03:11:37.433Z,98138.16
2023-04-27T03:14:08.032Z,98144.50
2023-04-27T03:16:38.546Z,98141.81
2023-04-27T03:19:08.680Z,98141.97
2023-04-27T03:21:38.818Z,98144.19
2023-04-27T03:24:11.966Z,98143.22
2023-04-27T03:26:41.897Z,98142.09
2023-04-27T03:29:11.925Z,98140.69
2023-04-27T03:31:42.092Z,98143.50
2023-04-27T03:34:12.334Z,98145.44
2023-04-27T03:36:42.652Z,98147.31
2023-04-27T03:39:16.395Z,98144.13
2023-04-27T03:41:46.442Z,98146.03
2023-04-27T03:44:16.483Z,98135.63
2023-04-27T03:46:46.530Z,98140.81
2023-04-27T03:49:16.637Z,98135.00
2023-04-27T03:51:46.614Z,98136.41
2023-04-27T03:54:20.624Z,98140.66
2023-04-27T03:56:50.685Z,98146.19
2023-04-27T03:59:21.762Z,98147.94
2023-04-27T04:01:53.268Z,98157.88
2023-04-27T04:04:23.352Z,98153.78
2023-04-27T04:06:54.188Z,98155.50
2023-04-27T04:09:26.637Z,98149.69
2023-04-27T04:11:58.019Z,98158.22
2023-04-27T04:14:27.966Z,98146.22
2023-04-27T04:16:58.514Z,98143.50
2023-04-27T04:19:28.647Z,98151.09
2023-04-27T04:21:58.609Z,98157.13
2023-04-27T04:24:31.466Z,98156.16
2023-04-27T04:27:01.490Z,98154.16
2023-04-27T04:29:31.501Z,98144.34
2023-04-27T04:32:01.635Z,98155.25
2023-04-27T04:34:33.796Z,98162.03
2023-04-27T04:37:04.784Z,98159.22
2023-04-27T04:39:37.275Z,98167.28
2023-04-27T04:42:07.876Z,98166.00
2023-04-27T04:44:38.968Z,98175.97
2023-04-27T04:47:10.207Z,98175.44
2023-04-27T04:49:40.070Z,98172.88
2023-04-27T04:52:09.985Z,98178.50
2023-04-27T04:54:42.467Z,98177.13
2023-04-27T04:57:12.540Z,98174.66
2023-04-27T04:59:42.700Z,98175.59
2023-04-27T05:02:12.588Z,98175.41
2023-04-27T05:04:42.529Z,98180.00
2023-04-27T05:07:15.005Z,98176.34
2023-04-27T05:09:48.087Z,98184.34
2023-04-27T05:12:17.984Z,98179.06
2023-04-27T05:14:48.616Z,98177.03
2023-04-27T05:17:18.578Z,98179.72
2023-04-27T05:19:48.485Z,98181.41
2023-04-27T05:22:18.473Z,98177.25
2023-04-27T05:24:51.052Z,98182.09
2023-04-27T05:27:21.021Z,98176.09
2023-04-27T05:29:51.036Z,98177.72
2023-04-27T05:32:21.279Z,98181.84
2023-04-27T05:34:51.476Z,98180.75
2023-04-27T05:37:21.333Z,98189.81
2023-04-27T05:39:53.973Z,98190.69
2023-04-27T05:42:23.844Z,98190.50
2023-04-27T05:44:53.757Z,98201.13
2023-04-27T05:47:24.008Z,98197.69
2023-04-27T05:49:54.961Z,98200.34
2023-04-27T05:52:30.918Z,98197.78
2023-04-27T05:55:04.021Z,98200.34
2023-04-27T05:57:34.003Z,98204.34
2023-04-27T06:00:07.493Z,98204.22
2023-04-27T06:02:42.272Z,98203.41
2023-04-27T06:05:12.924Z,98207.22
2023-04-27T06:07:44.022Z,98209.84
2023-04-27T06:10:17.249Z,98216.50
2023-04-27T06:12:47.286Z,98211.91
2023-04-27T06:15:17.288Z,98216.44
2023-04-27T06:17:47.438Z,98219.63
2023-04-27T06:20:17.497Z,98218.84
2023-04-27T06:22:47.412Z,98218.19
2023-04-27T06:25:20.014Z,98222.97
2023-04-27T06:27:49.898Z,98224.56
2023-04-27T06:30:20.014Z,98224.78
2023-04-27T06:32:49.958Z,98228.88
2023-04-27T06:35:20.142Z,98236.69
2023-04-27T06:37:50.050Z,98232.78
2023-04-27T06:40:22.650Z,98234.63
2023-04-27T06:42:52.543Z,98233.34
2023-04-27T06:45:22.727Z,98237.25
2023-04-27T06:47:52.618Z,98238.94
2023-04-27T06:50:22.571Z,98239.09
2023-04-27T06:52:52.596Z,98242.44
2023-04-27T06:55:25.398Z,98240.56
2023-04-27T06:57:55.288Z,98248.72
2023-04-27T07:00:25.634Z,98244.91
2023-04-27T07:02:56.024Z,98245.22
2023-04-27T07:05:26.201Z,98246.28
2023-04-27T07:07:56.165Z,98248.06
2023-04-27T07:10:28.652Z,98247.44
2023-04-27T07:12:58.561Z,98240.50
2023-04-27T07:15:28.858Z,98257.97
2023-04-27T07:17:58.799Z,98254.03
2023-04-27T07:20:28.755Z,98249.25
2023-04-27T07:22:58.928Z,98251.44
2023-04-27T07:25:31.447Z,98246.09
2023-04-27T07:28:01.303Z,98243.66
2023-04-27T07:30:31.556Z,98245.94
2023-04-27T07:33:01.715Z,98250.97
2023-04-27T07:35:32.150Z,98246.00
2023-04-27T07:38:03.767Z,98249.41
2023-04-27T07:40:36.512Z,98247.75
2023-04-27T07:43:06.951Z,98241.09
2023-04-27T07:45:37.459Z,98249.63
2023-04-27T07:48:08.271Z,98244.97
2023-04-27T07:50:38.300Z,98253.19
2023-04-27T07:53:08.766Z,98249.72
2023-04-27T07:55:41.633Z,98247.13
2023-04-27T07:58:11.892Z,98246.16
2023-04-27T08:00:42.368Z,98251.38
2023-04-27T08:03:12.923Z,98250.28
2023-04-27T08:05:44.619Z,98245.50
2023-04-27T08:08:15.113Z,98246.34
2023-04-27T08:10:48.256Z,98242.97
2023-04-27T08:13:18.201Z,98242.66
2023-04-27T08:15:48.143Z,98242.81
2023-04-27T08:18:18.106Z,98241.34
2023-04-27T08:20:48.304Z,98235.72
2023-04-27T08:23:18.483Z,98235.06
2023-04-27T08:25:50.942Z,98237.34
2023-04-27T08:28:20.809Z,98231.94
2023-04-27T08:30:50.666Z,98223.59
2023-04-27T08:33:21.312Z,98224.97
2023-04-27T08:35:51.294Z,98220.66
2023-04-27T08:38:22.213Z,98224.72
2023-04-27T08:40:56.252Z,98214.75
2023-04-27T08:43:26.237Z,98219.53
2023-04-27T08:45:56.654Z,98211.56
2023-04-27T08:48:26.741Z,98211.53
2023-04-27T08:50:58.841Z,98206.56
2023-04-27T08:53:28.753Z,98200.31
2023-04-27T08:56:02.019Z,98200.81
2023-04-27T08:58:41.407Z,98199.44
2023-04-27T09:01:11.521Z,98197.69
2023-04-27T09:03:41.771Z,98191.19
2023-04-27T09:06:12.007Z,98197.19
2023-04-27T09:08:46.553Z,98203.94
2023-04-27T09:11:20.021Z,98203.63
2023-04-27T09:13:49.958Z,98197.41
2023-04-27T09:16:26.483Z,98193.88
2023-04-27T09:18:56.823Z,98194.44
2023-04-27T09:21:27.989Z,98200.53
2023-04-27T09:23:59.207Z,98198.22
2023-04-27T09:26:32.183Z,98198.94
2023-04-27T09:29:02.079Z,98207.38
2023-04-27T09:31:35.848Z,98197.03
2023-04-27T09:34:07.516Z,98204.94
2023-04-27T09:36:37.550Z,98197.75
2023-04-27T09:39:07.600Z,98194.56
2023-04-27T09:41:40.202Z,98203.44
2023-04-27T09:44:12.423Z,98198.38
2023-04-27T09:46:45.783Z,98196.38
2023-04-27T09:49:16.701Z,98200.41
2023-04-27T09:51:46.609Z,98190.69
2023-04-27T09:54:17.486Z,98193.81
2023-04-27T09:57:01.745Z,98189.69
2023-04-27T09:59:44.595Z,98190.50
2023-04-27T10:02:25.339Z,98181.75
2023-04-27T10:05:29.931Z,98182.97
2023-04-27T10:08:00.918Z,98186.69
2023-04-27T10:10:31.367Z,98178.78
2023-04-27T10:13:05.020Z,98177.91
2023-04-27T10:15:34.892Z,98182.06
2023-04-27T10:18:08.883Z,98189.03
2023-04-27T10:20:41.075Z,98192.69
2023-04-27T10:23:11.453Z,98191.38
2023-04-27T10:25:43.235Z,98179.06
2023-04-27T10:28:19.387Z,98188.16
2023-04-27T10:30:51.175Z,98184.56
2023-04-27T10:33:22.205Z,98186.19
2023-04-27T10:35:58.608Z,98181.69
2023-04-27T10:38:32.858Z,98179.09
2023-04-27T10:41:05.796Z,98173.72
2023-04-27T10:43:39.197Z,98168.59
2023-04-27T10:46:13.970Z,98161.28
2023-04-27T10:48:44.889Z,98161.84
2023-04-27T10:51:18.372Z,98167.22
2023-04-27T10:53:48.328Z,98161.91
2023-04-27T10:56:18.326Z,98153.34
2023-04-27T10:58:50.869Z,98153.34
2023-04-27T11:01:27.923Z,98162.75
2023-04-27T11:03:59.095Z,98155.03
2023-04-27T11:06:30.535Z,98164.41
2023-04-27T11:09:00.685Z,98162.47
2023-04-27T11:11:31.026Z,98152.91
2023-04-27T11:14:03.830Z,98156.66
2023-04-27T11:16:34.221Z,98157.19
2023-04-27T11:19:08.075Z,98150.38
2023-04-27T11:21:38.018Z,98147.09
2023-04-27T11:24:08.919Z,98145.91
2023-04-27T11:26:38.991Z,98145.38
2023-04-27T11:29:14.491Z,98152.88
2023-04-27T11:31:47.816Z,98148.53
2023-04-27T11:34:19.693Z,98146.63
2023-04-27T11:37:10.659Z,98144.56
2023-04-27T11:39:48.759Z,98143.59
2023-04-27T11:42:22.101Z,98141.09
2023-04-27T11:44:59.482Z,98141.13
2023-04-27T11:47:31.316Z,98146.66
2023-04-27T11:50:02.547Z,98156.44
2023-04-27T11:52:32.448Z,98162.47
2023-04-27T11:55:03.753Z,98156.84
2023-04-27T11:57:36.096Z,98164.63
2023-04-27T12:00:14.434Z,98144.94
2023-04-27T12:02:45.587Z,98155.38
2023-04-27T12:05:15.951Z,98148.53
2023-04-27T12:07:46.457Z,98146.00
2023-04-27T12:10:16.717Z,98146.09
2023-04-27T12:12:46.856Z,98138.22
2023-04-27T12:15:19.466Z,98126.84
2023-04-27T12:17:49.359Z,98132.84
2023-04-27T12:20:19.465Z,98129.03
2023-04-27T12:22:49.347Z,98121.63
2023-04-27T12:25:19.963Z,98119.69
2023-04-27T12:27:50.304Z,98120.84
2023-04-27T12:30:23.351Z,98121.16
2023-04-27T12:32:53.408Z,98114.94
2023-04-27T12:35:23.606Z,98114.19
2023-04-27T12:37:53.530Z,98107.81
2023-04-27T12:40:23.629Z,98112.03
2023-04-27T12:42:53.669Z,98115.91
2023-04-27T12:45:26.201Z,98110.78
2023-04-27T12:48:03.305Z,98114.91
2023-04-27T12:50:33.923Z,98105.63
2023-04-27T12:53:03.823Z,98107.28
2023-04-27T12:55:34.605Z,98110.69
2023-04-27T12:58:05.155Z,98108.16
2023-04-27T13:00:38.726Z,98105.47
2023-04-27T13:03:09.630Z,98103.63
2023-04-27T13:05:39.881Z,98097.69
2023-04-27T13:08:09.809Z,98103.34
2023-04-27T13:10:41.509Z,98100.22
2023-04-27T13:13:11.800Z,98097.38
2023-04-27T13:15:44.256Z,98090.06
2023-04-27T13:18:14.243Z,98089.50
2023-04-27T13:20:44.308Z,98093.53
2023-04-27T13:23:14.507Z,98095.72
2023-04-27T13:25:44.445Z,98090.41
2023-04-27T13:28:14.393Z,98087.59
2023-04-27T13:30:48.952Z,98084.31
2023-04-27T13:33:22.387Z,98083.50
2023-04-27T13:35:53.853Z,98082.03
2023-04-27T13:38:23.749Z,98081.44
2023-04-27T13:40:53.638Z,98081.56
2023-04-27T13:43:23.585Z,98084.38
2023-04-27T13:45:57.206Z,98088.31
2023-04-27T13:48:28.493Z,98078.34
2023-04-27T13:50:58.701Z,98084.94
2023-04-27T13:53:28.797Z,98067.44
2023-04-27T13:56:00.717Z,98071.50
2023-04-27T13:58:31.130Z,98070.44
2023-04-27T14:01:03.704Z,98075.69
2023-04-27T14:03:34.069Z,98070.53
2023-04-27T14:06:04.332Z,98068.56
2023-04-27T14:08:34.572Z,98073.72
2023-04-27T14:11:05.966Z,98062.03
2023-04-27T14:13:35.880Z,98064.69
2023-04-27T14:16:09.840Z,98069.09
2023-04-27T14:18:39.838Z,98057.91
2023-04-27T14:21:09.905Z,98070.88
2023-04-27T14:23:39.837Z,98068.00
2023-04-27T14:26:10.379Z,98063.84
2023-04-27T14:28:40.272Z,98070.81
2023-04-27T14:31:12.838Z,98059.00
2023-04-27T14:33:42.767Z,98058.41
2023-04-27T14:36:12.969Z,98064.75
2023-04-27T14:38:42.855Z,98064.66
2023-04-27T14:41:12.775Z,98060.44
2023-04-27T14:43:44.902Z,98066.81
2023-04-27T14:46:20.736Z,98067.25
2023-04-27T14:48:51.853Z,98067.84
2023-04-27T14:51:21.833Z,98071.59
2023-04-27T14:53:51.802Z,98072.03
2023-04-27T14:56:23.336Z,98067.56
2023-04-27T14:58:55.291Z,98059.75
2023-04-27T15:01:27.969Z,98066.75
2023-04-27T15:03:58.932Z,98063.44
2023-04-27T15:06:30.555Z,98064.34
2023-04-27T15:09:00.714Z,98061.91
2023-04-27T15:11:30.666Z,98061.69
2023-04-27T15:14:00.552Z,98059.75
2023-04-27T15:16:33.268Z,98064.31
2023-04-27T15:19:03.532Z,98055.50
2023-04-27T15:21:33.971Z,98063.53
2023-04-27T15:24:03.814Z,98069.34
2023-04-27T15:26:34.201Z,98062.25
2023-04-27T15:29:04.120Z,98053.84
2023-04-27T15:31:37.248Z,98058.59
2023-04-27T15:34:07.167Z,98050.59
2023-04-27T15:36:37.161Z,98058.34
2023-04-27T15:39:09.900Z,98051.34
2023-04-27T15:41:40.951Z,98044.72
2023-04-27T15:44:10.836Z,98056.00
2023-04-27T15:46:43.355Z,98053.88
2023-04-27T15:49:14.168Z,98044.94
2023-04-27T15:51:44.262Z,98044.53
2023-04-27T15:54:14.298Z,98044.38
2023-04-27T15:56:44.227Z,98037.97
2023-04-27T15:59:14.992Z,98042.97
2023-04-27T16:01:47.687Z,98036.28
2023-04-27T16:04:17.836Z,98025.50
2023-04-27T16:06:48.753Z,98019.63
2023-04-27T16:09:19.013Z,98019.00
2023-04-27T16:11:48.968Z,98010.81
2023-04-27T16:14:18.809Z,98014.69
2023-04-27T16:16:51.608Z,98005.75
2023-04-27T16:19:22.591Z,98014.09
2023-04-27T16:21:52.589Z,98017.22
2023-04-27T16:24:22.621Z,98015.25
2023-04-27T16:26:52.549Z,98007.44
2023-04-27T16:29:22.511Z,98014.69
2023-04-27T16:31:55.714Z,98012.81
2023-04-27T16:34:25.816Z,98002.72
2023-04-27T16:36:55.690Z,97999.97
2023-04-27T16:39:25.672Z,97999.59
2023-04-27T16:41:55.544Z,98001.78
2023-04-27T16:44:26.334Z,98000.44
2023-04-27T16:46:58.859Z,97994.81
2023-04-27T16:49:28.748Z,97994.50
2023-04-27T16:51:59.147Z,98003.31
2023-04-27T16:54:29.058Z,97997.31
2023-04-27T16:56:59.216Z,97996.97
2023-04-27T16:59:29.126Z,97998.47
2023-04-27T17:02:09.492Z,97999.28
2023-04-27T17:04:47.105Z,97995.66
2023-04-27T17:07:17.624Z,97989.19
2023-04-27T17:09:47.593Z,97984.44
2023-04-27T17:12:17.512Z,97983.69
2023-04-27T17:14:47.432Z,97994.50
2023-04-27T17:17:20.273Z,97999.16
2023-04-27T17:19:50.236Z,97994.06
2023-04-27T17:22:21.389Z,97990.28
2023-04-27T17:24:51.333Z,97990.63
2023-04-27T17:27:21.848Z,97990.91
2023-04-27T17:29:51.920Z,97997.00
2023-04-27T17:32:24.569Z,97996.47
2023-04-27T17:34:54.535Z,97997.72
2023-04-27T17:37:24.428Z,98003.84
2023-04-27T17:39:54.679Z,97998.72
2023-04-27T17:42:24.603Z,97993.22
2023-04-27T17:44:54.512Z,98001.47
2023-04-27T17:47:27.594Z,97999.56
2023-04-27T17:49:57.812Z,98001.66
2023-04-27T17:52:27.824Z,97999.19
2023-04-27T17:54:58.612Z,98000.63
2023-04-27T17:57:28.560Z,97991.59
2023-04-27T17:59:58.524Z,97992.63
2023-04-27T18:02:31.114Z,97992.84
2023-04-27T18:05:01.369Z,97986.41
2023-04-27T18:07:31.224Z,97991.91
2023-04-27T18:10:01.130Z,97989.84
2023-04-27T18:12:31.163Z,97981.81
2023-04-27T18:15:03.809Z,97974.88
2023-04-27T18:17:38.424Z,97989.47
2023-04-27T18:20:10.736Z,97994.66
2023-04-27T18:22:41.298Z,98004.03
2023-04-27T18:25:13.466Z,98004.38
2023-04-27T18:27:45.422Z,98011.66
2023-04-27T18:30:16.125Z,98009.34
2023-04-27T18:32:48.716Z,98004.69
2023-04-27T18:35:18.681Z,98007.03
2023-04-27T18:37:49.067Z,98007.41
2023-04-27T18:40:21.835Z,98007.94
2023-04-27T18:42:51.806Z,98010.19
2023-04-27T18:45:21.806Z,98009.63
2023-04-27T18:47:54.746Z,98012.69
2023-04-27T18:50:25.104Z,98006.91
2023-04-27T18:52:55.409Z,98008.06
2023-04-27T18:55:25.756Z,98010.69
2023-04-27T18:57:56.027Z,98009.94
2023-04-27T19:00:26.423Z,98010.53
2023-04-27T19:02:59.398Z,98005.03
2023-04-27T19:05:29.919Z,98015.31
2023-04-27T19:07:59.878Z,98009.19
2023-04-27T19:10:29.875Z,98010.59
2023-04-27T19:13:00.275Z,98017.84
2023-04-27T19:15:30.809Z,98026.34
2023-04-27T19:18:10.610Z,98028.00
2023-04-27T19:20:41.737Z,98033.50
2023-04-27T19:23:13.674Z,98033.56
2023-04-27T19:25:43.831Z,98029.63
2023-04-27T19:28:15.240Z,98030.44
2023-04-27T19:30:45.299Z,98025.72
2023-04-27T19:33:20.357Z,98030.81
2023-04-27T19:35:50.574Z,98039.69
2023-04-27T19:38:22.599Z,98034.38
2023-04-27T19:40:52.639Z,98025.53
2023-04-27T19:43:22.520Z,98025.72
2023-04-27T19:45:52.543Z,98018.69
2023-04-27T19:48:25.121Z,98007.28
2023-04-27T19:50:55.133Z,98012.41
2023-04-27T19:53:25.070Z,98011.97
2023-04-27T19:55:55.304Z,98012.78
2023-04-27T19:58:25.294Z,98010.81
2023-04-27T20:00:56.100Z,98019.47
2023-04-27T20:03:28.706Z,98014.16
2023-04-27T20:05:59.215Z,98007.28
2023-04-27T20:08:29.228Z,98009.06
2023-04-27T20:10:59.210Z,98008.84
2023-04-27T20:13:29.248Z,98002.97
2023-04-27T20:15:59.393Z,98004.16
2023-04-27T20:18:32.517Z,98001.41
2023-04-27T20:21:02.426Z,98007.09
2023-04-27T20:23:32.279Z,97998.84
2023-04-27T20:26:02.346Z,97998.66
2023-04-27T20:28:32.664Z,97998.03
2023-04-27T20:31:02.553Z,97995.91
2023-04-27T20:33:35.033Z,98003.34
2023-04-27T20:36:14.063Z,97999.81
2023-04-27T20:38:47.152Z,97998.47
2023-04-27T20:41:17.294Z,97995.88
2023-04-27T20:43:47.665Z,97995.69
2023-04-27T20:46:17.606Z,97986.66
2023-04-27T20:48:50.855Z,97985.28
2023-04-27T20:51:21.558Z,97986.25
2023-04-27T20:53:51.652Z,97989.22
2023-04-27T20:56:21.623Z,97983.50
2023-04-27T20:58:51.551Z,97985.25
2023-04-27T21:01:21.680Z,97991.91
2023-04-27T21:03:54.286Z,97986.03
2023-04-27T21:06:24.334Z,97993.06
2023-04-27T21:08:54.502Z,97976.63
2023-04-27T21:11:24.889Z,97976.41
2023-04-27T21:13:55.575Z,97970.72
2023-04-27T21:16:25.623Z,97964.22
2023-04-27T21:18:58.152Z,97958.56
2023-04-27T21:21:28.077Z,97959.50
2023-04-27T21:24:07.087Z,97958.69
2023-04-27T21:26:47.865Z,97962.19
2023-04-27T21:29:17.749Z,97962.75
2023-04-27T21:31:47.697Z,97955.88
2023-04-27T21:34:20.151Z,97959.25
2023-04-27T21:36:50.004Z,97951.38
2023-04-27T21:39:19.880Z,97961.25
2023-04-27T21:41:49.967Z,97952.81
2023-04-27T21:44:19.890Z,97948.66
2023-04-27T21:46:49.872Z,97955.19
2023-04-27T21:49:22.463Z,97944.59
2023-04-27T21:51:52.432Z,97941.03
2023-04-27T21:54:22.411Z,97931.81
2023-04-27T21:56:52.308Z,97940.81
2023-04-27T21:59:22.539Z,97938.03
2023-04-27T22:01:52.741Z,97935.63
2023-04-27T22:04:25.525Z,97926.81
2023-04-27T22:06:55.527Z,97927.72
2023-04-27T22:09:25.443Z,97929.44
2023-04-27T22:11:55.328Z,97928.81
2023-04-27T22:14:25.214Z,97930.09
2023-04-27T22:16:55.538Z,97931.25
2023-04-27T22:19:28.213Z,97929.41
2023-04-27T22:21:58.177Z,97929.75
2023-04-27T22:24:28.322Z,97927.00
2023-04-27T22:26:58.269Z,97925.34
2023-04-27T22:29:28.306Z,97932.94
2023-04-27T22:31:58.587Z,97928.81
2023-04-27T22:34:31.301Z,97934.78
2023-04-27T22:37:02.249Z,97929.66
2023-04-27T22:39:33.057Z,97929.28
2023-04-27T22:42:03.018Z,97931.59
2023-04-27T22:44:33.173Z,97933.31
2023-04-27T22:47:04.577Z,97930.53
2023-04-27T22:49:37.554Z,97927.91
2023-04-27T22:52:08.198Z,97932.19
2023-04-27T22:54:38.250Z,97930.66
2023-04-27T22:57:08.208Z,97935.47
2023-04-27T22:59:38.114Z,97931.59
2023-04-27T23:02:07.968Z,97930.41
2023-04-27T23:04:41.237Z,97934.63
2023-04-27T23:07:11.304Z,97936.22
2023-04-27T23:09:42.890Z,97936.41
2023-04-27T23:12:12.811Z,97938.78
2023-04-27T23:14:43.025Z,97935.13
2023-04-27T23:17:13.060Z,97944.25
2023-04-27T23:19:46.919Z,97938.69
2023-04-27T23:22:16.794Z,97942.00
2023-04-27T23:24:46.715Z,97934.09
2023-04-27T23:27:16.672Z,97938.25
2023-04-27T23:29:46.782Z,97936.97
2023-04-27T23:32:17.037Z,97926.84
2023-04-27T23:34:50.430Z,97915.00
2023-04-27T23:37:20.409Z,97911.28
2023-04-27T23:39:50.351Z,97918.66
2023-04-27T23:42:20.292Z,97921.00
2023-04-27T23:44:50.256Z,97914.72
2023-04-27T23:47:20.151Z,97921.00
2023-04-27T23:49:52.641Z,97907.75
2023-04-27T23:52:22.605Z,97904.19
2023-04-27T23:54:52.530Z,97890.53
2023-04-27T23:57:22.440Z,97891.94
2023-04-27T23:59:52.320Z,97886.84
